sensor_id;sensor_type;location;lat;lon;timestamp;P1;durP1;ratioP1;P2;durP2;ratioP2
52798;SDS011;38667;42.872;74.622;2023-03-05T00:01:14;23.85;;;8.52;;
52798;SDS011;38667;42.872;74.622;2023-03-05T00:03:41;24.80;;;7.40;;
52798;SDS011;38667;42.872;74.622;2023-03-05T00:06:07;10.35;;;5.60;;
52798;SDS011;38667;42.872;74.622;2023-03-05T00:08:34;17.45;;;9.30;;
52798;SDS011;38667;42.872;74.622;2023-03-05T00:11:01;23.13;;;7.72;;
52798;SDS011;38667;42.872;74.622;2023-03-05T00:13:28;21.77;;;8.75;;
52798;SDS011;38667;42.872;74.622;2023-03-05T00:15:56;18.27;;;9.40;;
52798;SDS011;38667;42.872;74.622;2023-03-05T00:18:23;22.20;;;11.88;;
52798;SDS011;38667;42.872;74.622;2023-03-05T00:20:49;25.83;;;11.52;;
52798;SDS011;38667;42.872;74.622;2023-03-05T00:23:15;20.83;;;9.25;;
52798;SDS011;38667;42.872;74.622;2023-03-05T00:25:42;15.63;;;9.60;;
52798;SDS011;38667;42.872;74.622;2023-03-05T00:28:08;19.02;;;8.27;;
52798;SDS011;38667;42.872;74.622;2023-03-05T00:30:35;22.23;;;9.10;;
52798;SDS011;38667;42.872;74.622;2023-03-05T00:33:03;21.90;;;10.50;;
52798;SDS011;38667;42.872;74.622;2023-03-05T00:35:29;30.08;;;10.70;;
52798;SDS011;38667;42.872;74.622;2023-03-05T00:37:55;20.58;;;10.43;;
52798;SDS011;38667;42.872;74.622;2023-03-05T00:40:22;21.67;;;10.77;;
52798;SDS011;38667;42.872;74.622;2023-03-05T00:42:48;18.67;;;8.55;;
52798;SDS011;38667;42.872;74.622;2023-03-05T00:45:15;17.77;;;8.90;;
52798;SDS011;38667;42.872;74.622;2023-03-05T00:47:41;18.67;;;8.23;;
52798;SDS011;38667;42.872;74.622;2023-03-05T00:50:10;16.05;;;7.30;;
52798;SDS011;38667;42.872;74.622;2023-03-05T00:52:36;22.67;;;7.07;;
52798;SDS011;38667;42.872;74.622;2023-03-05T00:55:03;23.13;;;7.25;;
52798;SDS011;38667;42.872;74.622;2023-03-05T00:57:29;32.65;;;10.95;;
52798;SDS011;38667;42.872;74.622;2023-03-05T00:59:56;23.83;;;10.30;;
52798;SDS011;38667;42.872;74.622;2023-03-05T01:02:22;19.50;;;8.85;;
52798;SDS011;38667;42.872;74.622;2023-03-05T01:04:48;22.73;;;9.38;;
52798;SDS011;38667;42.872;74.622;2023-03-05T01:07:16;18.77;;;8.55;;
52798;SDS011;38667;42.872;74.622;2023-03-05T01:09:42;16.58;;;8.00;;
52798;SDS011;38667;42.872;74.622;2023-03-05T01:12:09;22.92;;;8.32;;
52798;SDS011;38667;42.872;74.622;2023-03-05T01:14:35;24.20;;;8.60;;
52798;SDS011;38667;42.872;74.622;2023-03-05T01:17:01;21.45;;;8.43;;
52798;SDS011;38667;42.872;74.622;2023-03-05T01:19:28;23.85;;;7.82;;
52798;SDS011;38667;42.872;74.622;2023-03-05T01:21:54;16.15;;;7.40;;
52798;SDS011;38667;42.872;74.622;2023-03-05T01:24:22;21.80;;;7.25;;
52798;SDS011;38667;42.872;74.622;2023-03-05T01:26:49;12.60;;;6.43;;
52798;SDS011;38667;42.872;74.622;2023-03-05T01:29:15;16.42;;;6.57;;
52798;SDS011;38667;42.872;74.622;2023-03-05T01:31:41;30.02;;;8.57;;
52798;SDS011;38667;42.872;74.622;2023-03-05T01:34:08;24.05;;;8.15;;
52798;SDS011;38667;42.872;74.622;2023-03-05T01:36:34;27.17;;;8.85;;
52798;SDS011;38667;42.872;74.622;2023-03-05T01:39:00;38.03;;;9.43;;
52798;SDS011;38667;42.872;74.622;2023-03-05T01:41:28;36.53;;;10.73;;
52798;SDS011;38667;42.872;74.622;2023-03-05T01:43:55;28.67;;;9.40;;
52798;SDS011;38667;42.872;74.622;2023-03-05T01:46:31;19.13;;;8.02;;
52798;SDS011;38667;42.872;74.622;2023-03-05T01:49:02;30.27;;;11.10;;
52798;SDS011;38667;42.872;74.622;2023-03-05T01:51:39;43.13;;;12.88;;
52798;SDS011;38667;42.872;74.622;2023-03-05T01:54:10;35.72;;;9.88;;
52798;SDS011;38667;42.872;74.622;2023-03-05T01:56:40;37.53;;;12.15;;
52798;SDS011;38667;42.872;74.622;2023-03-05T01:59:08;31.92;;;11.18;;
52798;SDS011;38667;42.872;74.622;2023-03-05T02:01:37;31.30;;;10.65;;
52798;SDS011;38667;42.872;74.622;2023-03-05T02:04:05;38.70;;;11.40;;
52798;SDS011;38667;42.872;74.622;2023-03-05T02:06:33;27.88;;;7.20;;
52798;SDS011;38667;42.872;74.622;2023-03-05T02:09:00;32.17;;;10.68;;
52798;SDS011;38667;42.872;74.622;2023-03-05T02:11:26;28.30;;;8.48;;
52798;SDS011;38667;42.872;74.622;2023-03-05T02:13:54;32.60;;;10.95;;
52798;SDS011;38667;42.872;74.622;2023-03-05T02:16:22;43.00;;;10.57;;
52798;SDS011;38667;42.872;74.622;2023-03-05T02:18:48;35.10;;;12.10;;
52798;SDS011;38667;42.872;74.622;2023-03-05T02:21:16;35.33;;;12.75;;
52798;SDS011;38667;42.872;74.622;2023-03-05T02:23:53;23.98;;;7.70;;
52798;SDS011;38667;42.872;74.622;2023-03-05T02:26:19;22.23;;;7.28;;
52798;SDS011;38667;42.872;74.622;2023-03-05T02:28:46;22.58;;;8.05;;
52798;SDS011;38667;42.872;74.622;2023-03-05T02:31:17;32.40;;;9.38;;
52798;SDS011;38667;42.872;74.622;2023-03-05T02:33:45;24.80;;;9.00;;
52798;SDS011;38667;42.872;74.622;2023-03-05T02:36:12;29.25;;;9.57;;
52798;SDS011;38667;42.872;74.622;2023-03-05T02:38:40;23.75;;;9.55;;
52798;SDS011;38667;42.872;74.622;2023-03-05T02:41:07;28.45;;;9.82;;
52798;SDS011;38667;42.872;74.622;2023-03-05T02:43:33;28.33;;;10.27;;
52798;SDS011;38667;42.872;74.622;2023-03-05T02:46:00;36.65;;;11.43;;
52798;SDS011;38667;42.872;74.622;2023-03-05T02:48:27;28.45;;;12.10;;
52798;SDS011;38667;42.872;74.622;2023-03-05T02:50:53;44.17;;;14.23;;
52798;SDS011;38667;42.872;74.622;2023-03-05T02:53:20;46.15;;;16.00;;
52798;SDS011;38667;42.872;74.622;2023-03-05T02:55:48;41.15;;;14.63;;
52798;SDS011;38667;42.872;74.622;2023-03-05T02:58:15;32.30;;;11.02;;
52798;SDS011;38667;42.872;74.622;2023-03-05T03:00:42;27.23;;;9.65;;
52798;SDS011;38667;42.872;74.622;2023-03-05T03:03:08;26.27;;;7.57;;
52798;SDS011;38667;42.872;74.622;2023-03-05T03:05:35;24.58;;;8.05;;
52798;SDS011;38667;42.872;74.622;2023-03-05T03:08:01;21.88;;;7.60;;
52798;SDS011;38667;42.872;74.622;2023-03-05T03:10:27;21.55;;;8.57;;
52798;SDS011;38667;42.872;74.622;2023-03-05T03:12:55;19.05;;;7.47;;
52798;SDS011;38667;42.872;74.622;2023-03-05T03:15:22;19.63;;;7.47;;
52798;SDS011;38667;42.872;74.622;2023-03-05T03:17:48;18.85;;;7.15;;
52798;SDS011;38667;42.872;74.622;2023-03-05T03:20:15;28.30;;;7.75;;
52798;SDS011;38667;42.872;74.622;2023-03-05T03:22:43;24.73;;;6.78;;
52798;SDS011;38667;42.872;74.622;2023-03-05T03:25:10;26.95;;;6.47;;
52798;SDS011;38667;42.872;74.622;2023-03-05T03:27:39;20.98;;;5.97;;
52798;SDS011;38667;42.872;74.622;2023-03-05T03:30:08;19.45;;;6.55;;
52798;SDS011;38667;42.872;74.622;2023-03-05T03:32:36;22.23;;;6.70;;
52798;SDS011;38667;42.872;74.622;2023-03-05T03:35:02;30.38;;;6.40;;
52798;SDS011;38667;42.872;74.622;2023-03-05T03:37:29;24.92;;;6.72;;
52798;SDS011;38667;42.872;74.622;2023-03-05T03:39:56;24.80;;;5.75;;
52798;SDS011;38667;42.872;74.622;2023-03-05T03:42:22;20.20;;;5.95;;
52798;SDS011;38667;42.872;74.622;2023-03-05T03:44:49;31.02;;;6.45;;
52798;SDS011;38667;42.872;74.622;2023-03-05T03:47:17;25.88;;;6.00;;
52798;SDS011;38667;42.872;74.622;2023-03-05T03:49:43;21.58;;;6.05;;
52798;SDS011;38667;42.872;74.622;2023-03-05T03:52:09;19.35;;;5.18;;
52798;SDS011;38667;42.872;74.622;2023-03-05T03:54:36;27.17;;;5.93;;
52798;SDS011;38667;42.872;74.622;2023-03-05T03:57:02;21.50;;;5.32;;
52798;SDS011;38667;42.872;74.622;2023-03-05T03:59:28;21.95;;;5.90;;
52798;SDS011;38667;42.872;74.622;2023-03-05T04:01:55;31.80;;;6.25;;
52798;SDS011;38667;42.872;74.622;2023-03-05T04:04:23;19.75;;;7.00;;
52798;SDS011;38667;42.872;74.622;2023-03-05T04:06:49;18.33;;;7.18;;
52798;SDS011;38667;42.872;74.622;2023-03-05T04:09:15;14.20;;;7.47;;
52798;SDS011;38667;42.872;74.622;2023-03-05T04:11:41;20.42;;;7.22;;
52798;SDS011;38667;42.872;74.622;2023-03-05T04:14:08;25.45;;;8.65;;
52798;SDS011;38667;42.872;74.622;2023-03-05T04:16:34;29.88;;;9.52;;
52798;SDS011;38667;42.872;74.622;2023-03-05T04:19:00;33.97;;;10.52;;
52798;SDS011;38667;42.872;74.622;2023-03-05T04:21:28;26.42;;;8.13;;
52798;SDS011;38667;42.872;74.622;2023-03-05T04:23:54;24.50;;;8.95;;
52798;SDS011;38667;42.872;74.622;2023-03-05T04:26:21;16.05;;;8.15;;
52798;SDS011;38667;42.872;74.622;2023-03-05T04:28:47;19.42;;;7.68;;
52798;SDS011;38667;42.872;74.622;2023-03-05T04:31:14;23.13;;;7.68;;
52798;SDS011;38667;42.872;74.622;2023-03-05T04:33:40;16.67;;;6.15;;
52798;SDS011;38667;42.872;74.622;2023-03-05T04:36:06;17.90;;;6.03;;
52798;SDS011;38667;42.872;74.622;2023-03-05T04:38:35;13.63;;;5.28;;
52798;SDS011;38667;42.872;74.622;2023-03-05T04:41:01;18.17;;;4.82;;
52798;SDS011;38667;42.872;74.622;2023-03-05T04:43:27;16.95;;;4.18;;
52798;SDS011;38667;42.872;74.622;2023-03-05T04:45:54;18.95;;;4.97;;
52798;SDS011;38667;42.872;74.622;2023-03-05T04:48:20;27.17;;;6.00;;
52798;SDS011;38667;42.872;74.622;2023-03-05T04:50:47;23.55;;;5.85;;
52798;SDS011;38667;42.872;74.622;2023-03-05T04:53:13;17.58;;;6.03;;
52798;SDS011;38667;42.872;74.622;2023-03-05T04:55:41;19.98;;;5.80;;
52798;SDS011;38667;42.872;74.622;2023-03-05T04:58:07;14.30;;;5.03;;
52798;SDS011;38667;42.872;74.622;2023-03-05T05:00:34;14.88;;;4.65;;
52798;SDS011;38667;42.872;74.622;2023-03-05T05:03:00;13.32;;;4.30;;
52798;SDS011;38667;42.872;74.622;2023-03-05T05:05:27;14.18;;;4.60;;
52798;SDS011;38667;42.872;74.622;2023-03-05T05:07:53;17.67;;;5.38;;
52798;SDS011;38667;42.872;74.622;2023-03-05T05:10:20;11.23;;;4.90;;
52798;SDS011;38667;42.872;74.622;2023-03-05T05:12:49;19.80;;;6.15;;
52798;SDS011;38667;42.872;74.622;2023-03-05T05:15:15;19.17;;;6.50;;
52798;SDS011;38667;42.872;74.622;2023-03-05T05:17:42;39.72;;;8.18;;
52798;SDS011;38667;42.872;74.622;2023-03-05T05:20:09;15.88;;;6.32;;
52798;SDS011;38667;42.872;74.622;2023-03-05T05:22:36;23.50;;;4.72;;
52798;SDS011;38667;42.872;74.622;2023-03-05T05:25:03;12.55;;;4.60;;
52798;SDS011;38667;42.872;74.622;2023-03-05T05:27:29;15.82;;;4.80;;
52798;SDS011;38667;42.872;74.622;2023-03-05T05:29:57;13.35;;;5.28;;
52798;SDS011;38667;42.872;74.622;2023-03-05T05:32:24;13.27;;;5.90;;
52798;SDS011;38667;42.872;74.622;2023-03-05T05:34:52;24.20;;;6.70;;
52798;SDS011;38667;42.872;74.622;2023-03-05T05:37:19;18.13;;;7.05;;
52798;SDS011;38667;42.872;74.622;2023-03-05T05:39:45;17.08;;;7.65;;
52798;SDS011;38667;42.872;74.622;2023-03-05T05:42:12;17.60;;;7.55;;
52798;SDS011;38667;42.872;74.622;2023-03-05T05:44:38;23.77;;;7.05;;
52798;SDS011;38667;42.872;74.622;2023-03-05T05:47:06;21.88;;;7.88;;
52798;SDS011;38667;42.872;74.622;2023-03-05T05:49:32;27.23;;;8.35;;
52798;SDS011;38667;42.872;74.622;2023-03-05T05:51:58;21.13;;;8.48;;
52798;SDS011;38667;42.872;74.622;2023-03-05T05:54:25;31.13;;;8.02;;
52798;SDS011;38667;42.872;74.622;2023-03-05T05:56:51;18.05;;;6.15;;
52798;SDS011;38667;42.872;74.622;2023-03-05T05:59:17;13.10;;;5.43;;
52798;SDS011;38667;42.872;74.622;2023-03-05T06:01:44;23.00;;;6.78;;
52798;SDS011;38667;42.872;74.622;2023-03-05T06:04:11;14.55;;;5.88;;
52798;SDS011;38667;42.872;74.622;2023-03-05T06:06:38;15.90;;;6.63;;
52798;SDS011;38667;42.872;74.622;2023-03-05T06:09:04;20.90;;;6.90;;
52798;SDS011;38667;42.872;74.622;2023-03-05T06:11:30;21.27;;;7.13;;
52798;SDS011;38667;42.872;74.622;2023-03-05T06:13:57;15.88;;;4.97;;
52798;SDS011;38667;42.872;74.622;2023-03-05T06:16:23;13.77;;;5.22;;
52798;SDS011;38667;42.872;74.622;2023-03-05T06:18:50;22.80;;;5.13;;
52798;SDS011;38667;42.872;74.622;2023-03-05T06:21:19;16.40;;;5.13;;
52798;SDS011;38667;42.872;74.622;2023-03-05T06:23:46;17.48;;;4.90;;
52798;SDS011;38667;42.872;74.622;2023-03-05T06:26:14;13.43;;;4.93;;
52798;SDS011;38667;42.872;74.622;2023-03-05T06:28:42;16.20;;;5.75;;
52798;SDS011;38667;42.872;74.622;2023-03-05T06:31:08;14.57;;;5.10;;
52798;SDS011;38667;42.872;74.622;2023-03-05T06:33:36;30.98;;;5.82;;
52798;SDS011;38667;42.872;74.622;2023-03-05T06:36:03;61.75;;;8.52;;
52798;SDS011;38667;42.872;74.622;2023-03-05T06:38:31;209.63;;;20.52;;
52798;SDS011;38667;42.872;74.622;2023-03-05T06:40:59;128.38;;;16.40;;
52798;SDS011;38667;42.872;74.622;2023-03-05T06:43:25;98.97;;;14.55;;
52798;SDS011;38667;42.872;74.622;2023-03-05T06:46:00;82.10;;;12.07;;
52798;SDS011;38667;42.872;74.622;2023-03-05T06:48:26;67.28;;;12.43;;
52798;SDS011;38667;42.872;74.622;2023-03-05T06:50:53;63.38;;;12.52;;
52798;SDS011;38667;42.872;74.622;2023-03-05T06:53:19;53.95;;;11.68;;
52798;SDS011;38667;42.872;74.622;2023-03-05T06:55:47;41.72;;;10.25;;
52798;SDS011;38667;42.872;74.622;2023-03-05T06:58:13;43.25;;;9.93;;
52798;SDS011;38667;42.872;74.622;2023-03-05T07:00:39;43.70;;;9.73;;
52798;SDS011;38667;42.872;74.622;2023-03-05T07:03:07;37.50;;;10.25;;
52798;SDS011;38667;42.872;74.622;2023-03-05T07:05:36;32.05;;;8.65;;
52798;SDS011;38667;42.872;74.622;2023-03-05T07:08:03;38.13;;;9.40;;
52798;SDS011;38667;42.872;74.622;2023-03-05T07:10:29;25.40;;;9.02;;
52798;SDS011;38667;42.872;74.622;2023-03-05T07:12:57;21.67;;;8.40;;
52798;SDS011;38667;42.872;74.622;2023-03-05T07:15:23;30.42;;;9.57;;
52798;SDS011;38667;42.872;74.622;2023-03-05T07:17:50;31.88;;;9.10;;
52798;SDS011;38667;42.872;74.622;2023-03-05T07:20:16;71.60;;;11.77;;
52798;SDS011;38667;42.872;74.622;2023-03-05T07:22:42;32.78;;;9.90;;
52798;SDS011;38667;42.872;74.622;2023-03-05T07:25:09;26.42;;;8.90;;
52798;SDS011;38667;42.872;74.622;2023-03-05T07:27:35;23.23;;;8.93;;
52798;SDS011;38667;42.872;74.622;2023-03-05T07:30:05;25.02;;;8.98;;
52798;SDS011;38667;42.872;74.622;2023-03-05T07:32:33;30.02;;;8.70;;
52798;SDS011;38667;42.872;74.622;2023-03-05T07:35:00;31.25;;;8.90;;
52798;SDS011;38667;42.872;74.622;2023-03-05T07:37:26;23.50;;;8.30;;
52798;SDS011;38667;42.872;74.622;2023-03-05T07:39:53;37.47;;;10.15;;
52798;SDS011;38667;42.872;74.622;2023-03-05T07:42:19;23.75;;;8.68;;
52798;SDS011;38667;42.872;74.622;2023-03-05T07:44:45;27.75;;;8.88;;
52798;SDS011;38667;42.872;74.622;2023-03-05T07:47:13;27.30;;;9.57;;
52798;SDS011;38667;42.872;74.622;2023-03-05T07:49:40;36.63;;;9.00;;
52798;SDS011;38667;42.872;74.622;2023-03-05T07:52:06;23.65;;;8.55;;
52798;SDS011;38667;42.872;74.622;2023-03-05T07:54:33;38.08;;;8.93;;
52798;SDS011;38667;42.872;74.622;2023-03-05T07:57:02;23.15;;;8.80;;
52798;SDS011;38667;42.872;74.622;2023-03-05T07:59:29;33.00;;;8.05;;
52798;SDS011;38667;42.872;74.622;2023-03-05T08:01:55;18.65;;;7.50;;
52798;SDS011;38667;42.872;74.622;2023-03-05T08:04:24;16.73;;;8.27;;
52798;SDS011;38667;42.872;74.622;2023-03-05T08:06:50;23.02;;;8.48;;
52798;SDS011;38667;42.872;74.622;2023-03-05T08:09:17;21.27;;;8.85;;
52798;SDS011;38667;42.872;74.622;2023-03-05T08:11:44;22.27;;;8.95;;
52798;SDS011;38667;42.872;74.622;2023-03-05T08:14:10;20.83;;;8.13;;
52798;SDS011;38667;42.872;74.622;2023-03-05T08:16:37;20.90;;;9.35;;
52798;SDS011;38667;42.872;74.622;2023-03-05T08:19:04;29.92;;;9.27;;
52798;SDS011;38667;42.872;74.622;2023-03-05T08:21:33;22.52;;;8.57;;
52798;SDS011;38667;42.872;74.622;2023-03-05T08:24:00;17.77;;;7.88;;
52798;SDS011;38667;42.872;74.622;2023-03-05T08:26:29;24.15;;;8.80;;
52798;SDS011;38667;42.872;74.622;2023-03-05T08:28:56;20.60;;;8.55;;
52798;SDS011;38667;42.872;74.622;2023-03-05T08:31:23;20.75;;;8.15;;
52798;SDS011;38667;42.872;74.622;2023-03-05T08:33:52;18.85;;;8.52;;
52798;SDS011;38667;42.872;74.622;2023-03-05T08:36:19;23.33;;;9.00;;
52798;SDS011;38667;42.872;74.622;2023-03-05T08:38:47;24.73;;;8.93;;
52798;SDS011;38667;42.872;74.622;2023-03-05T08:41:14;15.68;;;8.70;;
52798;SDS011;38667;42.872;74.622;2023-03-05T08:43:42;26.17;;;8.50;;
52798;SDS011;38667;42.872;74.622;2023-03-05T08:46:08;18.75;;;8.43;;
52798;SDS011;38667;42.872;74.622;2023-03-05T08:48:36;18.42;;;8.93;;
52798;SDS011;38667;42.872;74.622;2023-03-05T08:51:05;19.67;;;10.00;;
52798;SDS011;38667;42.872;74.622;2023-03-05T08:53:32;19.27;;;9.13;;
52798;SDS011;38667;42.872;74.622;2023-03-05T08:56:00;22.85;;;9.52;;
52798;SDS011;38667;42.872;74.622;2023-03-05T08:58:26;21.10;;;8.90;;
52798;SDS011;38667;42.872;74.622;2023-03-05T09:00:53;27.92;;;9.93;;
52798;SDS011;38667;42.872;74.622;2023-03-05T09:03:19;21.88;;;9.68;;
52798;SDS011;38667;42.872;74.622;2023-03-05T09:05:45;21.45;;;9.48;;
52798;SDS011;38667;42.872;74.622;2023-03-05T09:08:12;22.35;;;9.30;;
52798;SDS011;38667;42.872;74.622;2023-03-05T09:10:39;20.05;;;8.70;;
52798;SDS011;38667;42.872;74.622;2023-03-05T09:13:07;18.67;;;9.00;;
52798;SDS011;38667;42.872;74.622;2023-03-05T09:15:34;19.17;;;9.52;;
52798;SDS011;38667;42.872;74.622;2023-03-05T09:18:00;18.25;;;8.82;;
52798;SDS011;38667;42.872;74.622;2023-03-05T09:20:27;15.57;;;7.72;;
52798;SDS011;38667;42.872;74.622;2023-03-05T09:22:53;17.35;;;8.77;;
52798;SDS011;38667;42.872;74.622;2023-03-05T09:25:19;24.23;;;8.88;;
52798;SDS011;38667;42.872;74.622;2023-03-05T09:27:46;26.25;;;9.73;;
52798;SDS011;38667;42.872;74.622;2023-03-05T09:30:14;21.85;;;9.63;;
52798;SDS011;38667;42.872;74.622;2023-03-05T09:32:40;25.60;;;10.32;;
52798;SDS011;38667;42.872;74.622;2023-03-05T09:35:07;19.35;;;9.55;;
52798;SDS011;38667;42.872;74.622;2023-03-05T09:37:34;22.23;;;10.10;;
52798;SDS011;38667;42.872;74.622;2023-03-05T09:40:01;22.00;;;10.77;;
52798;SDS011;38667;42.872;74.622;2023-03-05T09:42:29;22.80;;;11.07;;
52798;SDS011;38667;42.872;74.622;2023-03-05T09:45:11;24.42;;;11.00;;
52798;SDS011;38667;42.872;74.622;2023-03-05T09:47:48;25.88;;;9.45;;
52798;SDS011;38667;42.872;74.622;2023-03-05T09:50:22;20.70;;;9.48;;
52798;SDS011;38667;42.872;74.622;2023-03-05T09:52:58;22.50;;;9.73;;
52798;SDS011;38667;42.872;74.622;2023-03-05T09:55:37;25.65;;;10.65;;
52798;SDS011;38667;42.872;74.622;2023-03-05T09:58:09;30.35;;;11.10;;
52798;SDS011;38667;42.872;74.622;2023-03-05T10:00:41;29.02;;;12.50;;
52798;SDS011;38667;42.872;74.622;2023-03-05T10:03:16;36.17;;;10.88;;
52798;SDS011;38667;42.872;74.622;2023-03-05T10:05:52;22.88;;;9.60;;
52798;SDS011;38667;42.872;74.622;2023-03-05T10:08:26;19.25;;;9.43;;
52798;SDS011;38667;42.872;74.622;2023-03-05T10:10:58;23.65;;;10.27;;
52798;SDS011;38667;42.872;74.622;2023-03-05T10:13:29;24.25;;;10.45;;
52798;SDS011;38667;42.872;74.622;2023-03-05T10:16:02;25.75;;;10.90;;
52798;SDS011;38667;42.872;74.622;2023-03-05T10:18:45;26.90;;;11.80;;
52798;SDS011;38667;42.872;74.622;2023-03-05T10:21:23;22.95;;;11.90;;
52798;SDS011;38667;42.872;74.622;2023-03-05T10:24:00;22.10;;;12.00;;
52798;SDS011;38667;42.872;74.622;2023-03-05T10:26:41;33.30;;;13.25;;
52798;SDS011;38667;42.872;74.622;2023-03-05T10:29:19;28.67;;;14.02;;
52798;SDS011;38667;42.872;74.622;2023-03-05T10:32:03;30.73;;;12.00;;
52798;SDS011;38667;42.872;74.622;2023-03-05T10:34:42;24.27;;;10.75;;
52798;SDS011;38667;42.872;74.622;2023-03-05T10:37:34;19.27;;;9.80;;
52798;SDS011;38667;42.872;74.622;2023-03-05T10:40:24;18.77;;;8.82;;
52798;SDS011;38667;42.872;74.622;2023-03-05T10:42:57;30.90;;;9.75;;
52798;SDS011;38667;42.872;74.622;2023-03-05T10:45:29;26.27;;;10.27;;
52798;SDS011;38667;42.872;74.622;2023-03-05T10:48:03;22.92;;;10.05;;
52798;SDS011;38667;42.872;74.622;2023-03-05T10:50:36;25.08;;;11.20;;
52798;SDS011;38667;42.872;74.622;2023-03-05T10:53:11;27.65;;;12.50;;
52798;SDS011;38667;42.872;74.622;2023-03-05T10:55:41;33.20;;;12.07;;
52798;SDS011;38667;42.872;74.622;2023-03-05T10:58:09;32.13;;;12.52;;
52798;SDS011;38667;42.872;74.622;2023-03-05T11:00:36;19.92;;;10.50;;
52798;SDS011;38667;42.872;74.622;2023-03-05T11:03:06;29.38;;;11.38;;
52798;SDS011;38667;42.872;74.622;2023-03-05T11:05:43;33.50;;;11.00;;
52798;SDS011;38667;42.872;74.622;2023-03-05T11:11:03;27.48;;;10.20;;
52798;SDS011;38667;42.872;74.622;2023-03-05T11:13:39;30.02;;;8.77;;
52798;SDS011;38667;42.872;74.622;2023-03-05T11:16:15;22.70;;;9.15;;
52798;SDS011;38667;42.872;74.622;2023-03-05T11:18:45;29.40;;;10.52;;
52798;SDS011;38667;42.872;74.622;2023-03-05T11:21:11;19.02;;;9.85;;
52798;SDS011;38667;42.872;74.622;2023-03-05T11:23:49;19.42;;;10.05;;
52798;SDS011;38667;42.872;74.622;2023-03-05T11:26:28;20.92;;;10.77;;
52798;SDS011;38667;42.872;74.622;2023-03-05T11:28:55;24.25;;;12.15;;
52798;SDS011;38667;42.872;74.622;2023-03-05T11:31:23;28.30;;;15.43;;
52798;SDS011;38667;42.872;74.622;2023-03-05T11:33:58;38.33;;;17.33;;
52798;SDS011;38667;42.872;74.622;2023-03-05T11:36:26;46.28;;;16.33;;
52798;SDS011;38667;42.872;74.622;2023-03-05T11:38:55;38.33;;;17.17;;
52798;SDS011;38667;42.872;74.622;2023-03-05T11:41:25;27.58;;;13.57;;
52798;SDS011;38667;42.872;74.622;2023-03-05T11:43:57;31.30;;;13.43;;
52798;SDS011;38667;42.872;74.622;2023-03-05T11:46:25;31.65;;;13.32;;
52798;SDS011;38667;42.872;74.622;2023-03-05T11:48:52;27.63;;;11.57;;
52798;SDS011;38667;42.872;74.622;2023-03-05T11:51:23;27.52;;;11.45;;
52798;SDS011;38667;42.872;74.622;2023-03-05T11:53:54;24.88;;;11.18;;
52798;SDS011;38667;42.872;74.622;2023-03-05T11:56:29;22.08;;;10.20;;
52798;SDS011;38667;42.872;74.622;2023-03-05T11:59:01;32.28;;;12.52;;
52798;SDS011;38667;42.872;74.622;2023-03-05T12:01:30;42.00;;;17.95;;
52798;SDS011;38667;42.872;74.622;2023-03-05T12:03:58;71.97;;;34.88;;
52798;SDS011;38667;42.872;74.622;2023-03-05T12:06:28;69.47;;;33.47;;
52798;SDS011;38667;42.872;74.622;2023-03-05T12:08:59;75.53;;;33.20;;
52798;SDS011;38667;42.872;74.622;2023-03-05T12:11:28;79.32;;;32.97;;
52798;SDS011;38667;42.872;74.622;2023-03-05T12:13:56;70.53;;;30.05;;
52798;SDS011;38667;42.872;74.622;2023-03-05T12:16:27;50.42;;;26.67;;
52798;SDS011;38667;42.872;74.622;2023-03-05T12:18:59;51.92;;;22.75;;
52798;SDS011;38667;42.872;74.622;2023-03-05T12:21:37;47.67;;;20.80;;
52798;SDS011;38667;42.872;74.622;2023-03-05T12:27:07;54.70;;;22.00;;
52798;SDS011;38667;42.872;74.622;2023-03-05T12:29:39;61.85;;;23.45;;
52798;SDS011;38667;42.872;74.622;2023-03-05T12:35:16;74.82;;;29.10;;
52798;SDS011;38667;42.872;74.622;2023-03-05T12:38:02;86.15;;;38.00;;
52798;SDS011;38667;42.872;74.622;2023-03-05T12:40:53;124.70;;;56.67;;
52798;SDS011;38667;42.872;74.622;2023-03-05T12:44:15;144.43;;;63.97;;
52798;SDS011;38667;42.872;74.622;2023-03-05T12:46:46;172.98;;;69.68;;
52798;SDS011;38667;42.872;74.622;2023-03-05T12:49:44;150.68;;;67.97;;
52798;SDS011;38667;42.872;74.622;2023-03-05T12:52:12;134.05;;;62.28;;
52798;SDS011;38667;42.872;74.622;2023-03-05T12:54:56;112.75;;;50.08;;
52798;SDS011;38667;42.872;74.622;2023-03-05T12:57:29;122.45;;;54.65;;
52798;SDS011;38667;42.872;74.622;2023-03-05T12:59:57;115.28;;;52.58;;
52798;SDS011;38667;42.872;74.622;2023-03-05T13:02:27;114.88;;;51.08;;
52798;SDS011;38667;42.872;74.622;2023-03-05T13:04:59;119.07;;;51.90;;
52798;SDS011;38667;42.872;74.622;2023-03-05T13:07:29;124.32;;;50.78;;
52798;SDS011;38667;42.872;74.622;2023-03-05T13:09:57;140.57;;;54.15;;
52798;SDS011;38667;42.872;74.622;2023-03-05T13:12:25;177.68;;;84.53;;
52798;SDS011;38667;42.872;74.622;2023-03-05T13:14:56;183.98;;;81.90;;
52798;SDS011;38667;42.872;74.622;2023-03-05T13:17:28;158.65;;;76.05;;
52798;SDS011;38667;42.872;74.622;2023-03-05T13:20:00;148.45;;;70.65;;
52798;SDS011;38667;42.872;74.622;2023-03-05T13:22:29;163.95;;;75.07;;
52798;SDS011;38667;42.872;74.622;2023-03-05T13:25:05;163.98;;;88.63;;
52798;SDS011;38667;42.872;74.622;2023-03-05T13:27:39;193.60;;;93.63;;
52798;SDS011;38667;42.872;74.622;2023-03-05T13:30:12;151.25;;;78.40;;
52798;SDS011;38667;42.872;74.622;2023-03-05T13:32:48;151.05;;;66.65;;
52798;SDS011;38667;42.872;74.622;2023-03-05T13:35:15;195.40;;;85.80;;
52798;SDS011;38667;42.872;74.622;2023-03-05T13:37:42;218.50;;;97.63;;
52798;SDS011;38667;42.872;74.622;2023-03-05T13:40:17;166.85;;;83.43;;
52798;SDS011;38667;42.872;74.622;2023-03-05T13:42:45;167.00;;;72.78;;
52798;SDS011;38667;42.872;74.622;2023-03-05T13:45:19;157.82;;;70.20;;
52798;SDS011;38667;42.872;74.622;2023-03-05T13:47:53;151.95;;;71.50;;
52798;SDS011;38667;42.872;74.622;2023-03-05T13:50:22;130.20;;;62.05;;
52798;SDS011;38667;42.872;74.622;2023-03-05T13:52:51;133.95;;;61.03;;
52798;SDS011;38667;42.872;74.622;2023-03-05T13:55:18;135.88;;;69.88;;
52798;SDS011;38667;42.872;74.622;2023-03-05T13:57:46;144.82;;;71.47;;
52798;SDS011;38667;42.872;74.622;2023-03-05T14:00:27;148.90;;;72.10;;
52798;SDS011;38667;42.872;74.622;2023-03-05T14:02:56;117.95;;;59.10;;
52798;SDS011;38667;42.872;74.622;2023-03-05T14:05:24;112.25;;;53.08;;
52798;SDS011;38667;42.872;74.622;2023-03-05T14:07:50;101.22;;;50.92;;
52798;SDS011;38667;42.872;74.622;2023-03-05T14:10:28;91.18;;;50.08;;
52798;SDS011;38667;42.872;74.622;2023-03-05T14:12:58;98.57;;;48.30;;
52798;SDS011;38667;42.872;74.622;2023-03-05T14:15:28;63.22;;;30.80;;
52798;SDS011;38667;42.872;74.622;2023-03-05T14:20:57;45.40;;;20.17;;
52798;SDS011;38667;42.872;74.622;2023-03-05T14:23:29;32.85;;;16.00;;
52798;SDS011;38667;42.872;74.622;2023-03-05T14:26:16;43.88;;;18.30;;
52798;SDS011;38667;42.872;74.622;2023-03-05T14:28:52;30.83;;;13.30;;
52798;SDS011;38667;42.872;74.622;2023-03-05T14:31:20;34.35;;;15.38;;
52798;SDS011;38667;42.872;74.622;2023-03-05T14:33:47;64.30;;;27.80;;
52798;SDS011;38667;42.872;74.622;2023-03-05T14:36:18;35.75;;;17.08;;
52798;SDS011;38667;42.872;74.622;2023-03-05T14:38:47;33.33;;;13.13;;